Time;durP1;ratioP1;P1;durP2;ratioP2;P2;SDS_P1;SDS_P2;PMS_P1;PMS_P2;Temp;Humidity;BMP_temperature;BMP_pressure;BME280_temperature;BME280_humidity;BME280_pressure;Samples;Min_cycle;Max_cycle;Signal;HPM_P1;HPM_P2
2022/12/14 00:01:21;;;;;;;;;;;-2.30;99.90;;;;;;4989352;28;19926;-69
2022/12/14 00:03:47;;;;;;;;;;;-2.40;99.90;;;;;;5003630;28;19926;-68
2022/12/14 00:06:13;;;;;;;;;;;-2.40;99.90;;;;;;4987832;28;19925;-70
2022/12/14 00:08:38;;;;;;;;;;;-2.40;99.90;;;;;;5020725;28;20406;-68
2022/12/14 00:11:04;;;;;;;;;;;-2.40;99.90;;;;;;4989971;28;20399;-69
2022/12/14 00:13:30;;;;;;;;;;;-2.50;99.90;;;;;;5022061;28;19925;-69
2022/12/14 00:15:55;;;;;;;;;;;-2.50;99.90;;;;;;4972175;28;20386;-69
2022/12/14 00:18:21;;;;;;;;;;;-2.50;99.90;;;;;;4972231;28;19945;-69
2022/12/14 00:20:46;;;;;;;;;;;-2.50;99.90;;;;;;4993365;28;19925;-69
2022/12/14 00:23:12;;;;;;;;;;;-2.10;99.90;;;;;;5028077;28;19925;-68
2022/12/14 00:25:37;;;;;;;;;;;-2.50;99.90;;;;;;5026894;28;19978;-69
2022/12/14 00:28:03;;;;;;;;;;;-2.60;99.90;;;;;;5027938;28;20280;-68
2022/12/14 00:30:29;;;;;;;;;;;-2.60;99.90;;;;;;5029086;28;19925;-69
2022/12/14 00:32:55;;;;;;;;;;;-2.60;99.90;;;;;;5029353;28;19929;-69
2022/12/14 00:35:21;;;;;;;;;;;-2.10;99.90;;;;;;5028564;28;19925;-69
2022/12/14 00:37:46;;;;;;;;;;;-2.70;99.90;;;;;;5044049;28;20231;-69
2022/12/14 00:40:13;;;;;;;;;;;-2.70;99.90;;;;;;5011305;28;19925;-68
2022/12/14 00:42:38;;;;;;;;;;;-2.10;99.90;;;;;;5011778;28;19975;-68
2022/12/14 00:45:04;;;;;;;;;;;-2.80;99.90;;;;;;5043619;28;19929;-69
2022/12/14 00:47:30;;;;;;;;;;;-2.80;99.90;;;;;;5028057;28;19968;-67
2022/12/14 00:49:55;;;;;;;;;;;-2.80;99.90;;;;;;5028412;28;19986;-69
2022/12/14 00:52:21;;;;;;;;;;;-2.90;99.90;;;;;;5043648;28;20236;-69
2022/12/14 00:54:46;;;;;;;;;;;-2.60;99.90;;;;;;5027961;28;20031;-68
2022/12/14 00:57:12;;;;;;;;;;;-2.90;99.90;;;;;;5043817;28;19974;-68
2022/12/14 00:59:38;;;;;;;;;;;-2.90;99.90;;;;;;5028912;28;20334;-69
2022/12/14 01:02:03;;;;;;;;;;;-2.90;99.90;;;;;;5044107;28;20337;-68
2022/12/14 01:04:29;;;;;;;;;;;-2.90;99.90;;;;;;5044545;28;19932;-69
2022/12/14 01:06:55;;;;;;;;;;;-3.00;99.90;;;;;;5028775;28;19929;-69
2022/12/14 01:09:22;;;;;;;;;;;-3.00;99.90;;;;;;5011057;28;20359;-69
2022/12/14 01:11:47;;;;;;;;;;;-3.10;99.90;;;;;;5026627;28;19980;-68
2022/12/14 01:14:14;;;;;;;;;;;-2.90;99.90;;;;;;5012354;28;19932;-68
2022/12/14 01:16:40;;;;;;;;;;;-3.20;99.90;;;;;;5047631;28;20294;-68
2022/12/14 01:19:06;;;;;;;;;;;-3.30;99.90;;;;;;5031682;28;19951;-69
2022/12/14 01:21:31;;;;;;;;;;;-3.40;99.90;;;;;;5047092;28;20345;-68
2022/12/14 01:23:58;;;;;;;;;;;-3.40;99.90;;;;;;5031454;28;19948;-69
2022/12/14 01:26:24;;;;;;;;;;;-3.40;99.90;;;;;;5013596;28;19925;-68
2022/12/14 01:28:51;;;;;;;;;;;-3.50;99.90;;;;;;5047506;28;19932;-68
2022/12/14 01:31:18;;;;;;;;;;;-3.50;99.90;;;;;;5014363;28;19925;-69
2022/12/14 01:33:44;;;;;;;;;;;-3.50;99.90;;;;;;5031898;28;20007;-69
2022/12/14 01:36:11;;;;;;;;;;;-3.60;99.90;;;;;;5012695;28;20016;-69
2022/12/14 01:38:37;;;;;;;;;;;-3.60;99.90;;;;;;5047220;28;19932;-68
2022/12/14 01:41:03;;;;;;;;;;;-3.60;99.90;;;;;;5031656;28;19925;-68
2022/12/14 01:43:47;;;;;;;;;;;-3.60;99.90;;;;;;5031540;28;20039;-69
2022/12/14 01:46:15;;;;;;;;;;;-3.70;99.90;;;;;;5013572;28;19925;-68
2022/12/14 01:48:41;;;;;;;;;;;-3.70;99.90;;;;;;5047172;28;19925;-69
2022/12/14 01:51:06;;;;;;;;;;;-3.70;99.90;;;;;;5046927;28;20357;-68
2022/12/14 01:53:32;;;;;;;;;;;-3.50;99.90;;;;;;5030461;28;19929;-70
2022/12/14 01:55:58;;;;;;;;;;;-3.70;99.90;;;;;;5030564;28;20328;-69
2022/12/14 01:58:24;;;;;;;;;;;-3.20;99.90;;;;;;5030751;28;19925;-69
2022/12/14 02:00:53;;;;;;;;;;;-3.80;99.90;;;;;;5030138;28;19967;-69
2022/12/14 02:03:21;;;;;;;;;;;-3.90;99.90;;;;;;5046665;28;19925;-68
2022/12/14 02:05:50;;;;;;;;;;;-3.90;99.90;;;;;;5031352;28;19931;-69
2022/12/14 02:08:16;;;;;;;;;;;-4.00;99.90;;;;;;5029347;28;19925;-69
2022/12/14 02:10:43;;;;;;;;;;;-3.90;99.90;;;;;;5031222;28;19954;-69
2022/12/14 02:13:26;;;;;;;;;;;-4.00;99.90;;;;;;5047059;28;19933;-69
2022/12/14 02:15:52;;;;;;;;;;;-4.00;99.90;;;;;;5030223;28;20289;-68
2022/12/14 02:18:22;;;;;;;;;;;-3.90;99.90;;;;;;5044974;28;20012;-70
2022/12/14 02:20:51;;;;;;;;;;;-3.90;99.90;;;;;;5028468;28;19974;-69
2022/12/14 02:23:28;;;;;;;;;;;-3.90;99.90;;;;;;5029439;28;20378;-69
2022/12/14 02:26:12;;;;;;;;;;;-3.90;99.90;;;;;;5013291;28;20067;-70
2022/12/14 02:28:53;;;;;;;;;;;-3.90;99.90;;;;;;5045158;28;20255;-68
2022/12/14 02:31:24;;;;;;;;;;;-3.90;99.90;;;;;;5029614;28;19948;-69
2022/12/14 02:33:56;;;;;;;;;;;-4.00;99.90;;;;;;5046357;28;19926;-70
2022/12/14 02:36:32;;;;;;;;;;;-4.00;99.90;;;;;;5046071;28;20019;-70
2022/12/14 02:39:07;;;;;;;;;;;-4.00;99.90;;;;;;5030893;28;19952;-69
2022/12/14 02:41:48;;;;;;;;;;;-4.00;99.90;;;;;;5012315;28;19926;-69
2022/12/14 02:44:25;;;;;;;;;;;-4.00;99.90;;;;;;5030292;28;19929;-69
2022/12/14 02:47:09;;;;;;;;;;;-4.10;99.90;;;;;;5046210;28;19929;-69
2022/12/14 02:50:01;;;;;;;;;;;-4.00;99.90;;;;;;5030743;28;20015;-69
2022/12/14 02:52:39;;;;;;;;;;;-4.10;99.90;;;;;;5015623;28;19932;-68
2022/12/14 02:55:26;;;;;;;;;;;-4.10;99.90;;;;;;5043261;28;19977;-69
2022/12/14 02:57:57;;;;;;;;;;;-4.10;99.90;;;;;;5011794;28;20016;-69
2022/12/14 03:00:23;;;;;;;;;;;-3.40;99.90;;;;;;5028644;28;19972;-68
2022/12/14 03:02:50;;;;;;;;;;;-4.20;99.90;;;;;;5045644;28;20408;-68
2022/12/14 03:05:15;;;;;;;;;;;-4.20;99.90;;;;;;5012920;28;19925;-69
2022/12/14 03:07:53;;;;;;;;;;;-4.30;99.90;;;;;;5045015;28;19926;-69
2022/12/14 03:10:39;;;;;;;;;;;-4.40;99.90;;;;;;5030191;28;19970;-69
2022/12/14 03:13:11;;;;;;;;;;;-4.40;99.90;;;;;;5022706;28;20339;-70
2022/12/14 03:15:39;;;;;;;;;;;-4.40;99.90;;;;;;5045202;28;19925;-69
2022/12/14 03:18:06;;;;;;;;;;;-4.40;99.90;;;;;;5030108;28;20305;-69
2022/12/14 03:20:32;;;;;;;;;;;-4.50;99.90;;;;;;5045069;28;19960;-69
2022/12/14 03:22:58;;;;;;;;;;;-4.50;99.90;;;;;;5029863;28;19933;-68
2022/12/14 03:25:28;;;;;;;;;;;-4.50;99.90;;;;;;5028981;28;20282;-68
2022/12/14 03:28:03;;;;;;;;;;;-4.50;99.90;;;;;;5045537;28;19982;-69
2022/12/14 03:30:31;;;;;;;;;;;-4.50;99.90;;;;;;5029437;28;20289;-69
2022/12/14 03:33:00;;;;;;;;;;;-4.60;99.90;;;;;;5045292;28;19925;-68
2022/12/14 03:35:32;;;;;;;;;;;-4.60;99.90;;;;;;5029368;28;19925;-69
2022/12/14 03:38:01;;;;;;;;;;;-4.70;99.90;;;;;;5044671;28;20011;-68
2022/12/14 03:40:33;;;;;;;;;;;-4.70;99.90;;;;;;5029810;28;19932;-70
2022/12/14 03:42:58;;;;;;;;;;;-4.70;99.90;;;;;;5029595;28;19925;-68
2022/12/14 03:45:27;;;;;;;;;;;-4.70;99.90;;;;;;5045268;28;19966;-68
2022/12/14 03:48:11;;;;;;;;;;;-4.70;99.90;;;;;;5029245;28;19931;-69
2022/12/14 03:50:36;;;;;;;;;;;-4.70;99.90;;;;;;5029321;28;19925;-68
2022/12/14 03:53:08;;;;;;;;;;;-4.70;99.90;;;;;;5044517;28;19936;-69
2022/12/14 03:55:46;;;;;;;;;;;-4.70;99.90;;;;;;5044690;28;20019;-69
2022/12/14 03:58:17;;;;;;;;;;;-4.70;99.90;;;;;;5028517;28;19968;-69
2022/12/14 04:01:03;;;;;;;;;;;-4.70;99.90;;;;;;5029079;28;19994;-69
2022/12/14 04:03:39;;;;;;;;;;;-4.70;99.90;;;;;;5029068;28;20032;-69
2022/12/14 04:06:08;;;;;;;;;;;-4.70;99.90;;;;;;5011958;28;19929;-68
2022/12/14 04:08:45;;;;;;;;;;;-4.70;99.90;;;;;;5011276;28;19972;-69
2022/12/14 04:19:38;;;;;;;;;;;-4.70;99.90;;;;;;5029014;28;19929;-69
2022/12/14 04:22:16;;;;;;;;;;;-4.80;99.90;;;;;;5011457;28;20078;-69
2022/12/14 04:27:47;;;;;;;;;;;-4.80;99.90;;;;;;5041825;28;19983;-69
2022/12/14 04:30:12;;;;;;;;;;;-4.80;99.90;;;;;;5028187;28;20474;-68
2022/12/14 04:32:41;;;;;;;;;;;-4.80;99.90;;;;;;5011074;28;20020;-68
2022/12/14 04:35:10;;;;;;;;;;;-4.80;99.90;;;;;;5044454;28;19973;-69
2022/12/14 04:37:37;;;;;;;;;;;-4.80;99.90;;;;;;5044515;28;19962;-69
2022/12/14 04:40:09;;;;;;;;;;;-4.80;99.90;;;;;;5028831;28;19933;-69
2022/12/14 04:42:39;;;;;;;;;;;-4.80;99.90;;;;;;5028103;28;19998;-70
2022/12/14 04:45:08;;;;;;;;;;;-4.80;99.90;;;;;;5044471;28;19975;-69
2022/12/14 04:47:37;;;;;;;;;;;-4.90;99.90;;;;;;5011641;28;19921;-68
2022/12/14 04:50:17;;;;;;;;;;;-4.90;99.90;;;;;;5032079;28;19922;-68
2022/12/14 04:52:54;;;;;;;;;;;-4.90;99.90;;;;;;5048007;28;19921;-69
2022/12/14 04:55:25;;;;;;;;;;;-4.90;99.90;;;;;;5014916;28;20282;-68
2022/12/14 04:57:56;;;;;;;;;;;-4.90;99.90;;;;;;5032516;28;19921;-69
2022/12/14 05:00:22;;;;;;;;;;;-4.90;99.90;;;;;;5047855;28;20320;-69
2022/12/14 05:03:02;;;;;;;;;;;-4.90;99.90;;;;;;5032995;28;19921;-68
2022/12/14 05:05:38;;;;;;;;;;;-4.90;99.90;;;;;;5048555;28;20324;-68
2022/12/14 05:08:11;;;;;;;;;;;-4.90;99.90;;;;;;5047640;28;19969;-68
2022/12/14 05:10:42;;;;;;;;;;;-4.90;99.90;;;;;;5047957;28;19931;-68
2022/12/14 05:13:20;;;;;;;;;;;-4.90;99.90;;;;;;5032598;28;19933;-69
2022/12/14 05:15:47;;;;;;;;;;;-4.90;99.90;;;;;;5032204;28;19932;-68
2022/12/14 05:18:13;;;;;;;;;;;-4.90;99.90;;;;;;5014701;28;19925;-69
2022/12/14 05:20:39;;;;;;;;;;;-4.90;99.90;;;;;;5048162;28;19925;-68
2022/12/14 05:23:05;;;;;;;;;;;-4.90;99.90;;;;;;4991943;28;19980;-68
2022/12/14 05:25:30;;;;;;;;;;;-4.90;99.90;;;;;;4993235;28;19925;-68
2022/12/14 05:27:56;;;;;;;;;;;-4.80;99.90;;;;;;5024668;28;19926;-69
2022/12/14 05:30:21;;;;;;;;;;;-4.80;99.90;;;;;;5007860;28;19926;-68
2022/12/14 05:32:47;;;;;;;;;;;-4.80;99.90;;;;;;4992250;28;20399;-68
2022/12/14 05:35:13;;;;;;;;;;;-4.90;99.90;;;;;;5024018;28;19926;-68
2022/12/14 05:37:39;;;;;;;;;;;-4.80;99.90;;;;;;5024255;28;19937;-68
2022/12/14 05:40:05;;;;;;;;;;;-4.90;99.90;;;;;;5023604;28;20208;-68
2022/12/14 05:42:30;;;;;;;;;;;-4.90;99.90;;;;;;5024194;28;19975;-67
2022/12/14 05:44:56;;;;;;;;;;;-4.90;99.90;;;;;;5023704;28;20351;-68
2022/12/14 05:47:22;;;;;;;;;;;-4.90;99.90;;;;;;5024363;28;19933;-68
2022/12/14 05:49:47;;;;;;;;;;;-4.90;99.90;;;;;;5023683;28;19926;-68
2022/12/14 05:52:13;;;;;;;;;;;-5.00;99.90;;;;;;5024420;28;20013;-68
2022/12/14 05:54:38;;;;;;;;;;;-4.60;99.90;;;;;;4991114;28;19933;-67
2022/12/14 05:57:05;;;;;;;;;;;-5.00;99.90;;;;;;4991954;28;19930;-68
2022/12/14 05:59:31;;;;;;;;;;;-5.10;99.90;;;;;;5024273;28;19930;-68
2022/12/14 06:01:57;;;;;;;;;;;-5.10;99.90;;;;;;4991478;28;19948;-68
2022/12/14 06:04:23;;;;;;;;;;;-5.20;99.90;;;;;;4992281;28;20393;-68
2022/12/14 06:06:49;;;;;;;;;;;-5.20;99.90;;;;;;5006969;28;20028;-69
2022/12/14 06:09:15;;;;;;;;;;;-5.20;99.90;;;;;;4992154;28;19933;-68
2022/12/14 06:11:41;;;;;;;;;;;-5.30;99.90;;;;;;4992054;28;20309;-68
2022/12/14 06:14:07;;;;;;;;;;;-5.20;99.90;;;;;;4974453;28;19976;-68
2022/12/14 06:16:33;;;;;;;;;;;-5.40;99.90;;;;;;4991953;28;19926;-67
2022/12/14 06:18:59;;;;;;;;;;;-5.40;99.90;;;;;;5023148;28;19972;-68
2022/12/14 06:21:26;;;;;;;;;;;-5.40;99.90;;;;;;4990494;28;19930;-68
2022/12/14 06:23:53;;;;;;;;;;;-5.40;99.90;;;;;;5023153;28;19926;-69
2022/12/14 06:26:18;;;;;;;;;;;-5.40;99.90;;;;;;4991608;28;19926;-68
2022/12/14 06:28:44;;;;;;;;;;;-5.40;99.90;;;;;;4992083;28;19929;-67
2022/12/14 06:31:14;;;;;;;;;;;-5.40;99.90;;;;;;5006523;28;19926;-67
2022/12/14 06:33:40;;;;;;;;;;;-5.50;99.90;;;;;;4991708;28;20348;-66
2022/12/14 06:36:05;;;;;;;;;;;-5.50;99.90;;;;;;4990336;28;20021;-69
2022/12/14 06:38:31;;;;;;;;;;;-5.60;99.90;;;;;;4990517;28;20003;-68
2022/12/14 06:40:56;;;;;;;;;;;-5.60;99.90;;;;;;5022918;28;20020;-68
2022/12/14 06:43:25;;;;;;;;;;;-5.60;99.90;;;;;;4991433;28;19926;-67
2022/12/14 06:45:51;;;;;;;;;;;-5.60;99.90;;;;;;4990191;28;19926;-68
2022/12/14 06:48:16;;;;;;;;;;;-5.60;99.90;;;;;;5022617;28;19926;-69
2022/12/14 06:50:42;;;;;;;;;;;-5.60;99.90;;;;;;4990344;28;20015;-67
2022/12/14 06:53:11;;;;;;;;;;;-5.60;99.90;;;;;;4991007;28;19925;-69
2022/12/14 06:55:37;;;;;;;;;;;-5.60;99.90;;;;;;5023269;28;19926;-68
2022/12/14 06:58:02;;;;;;;;;;;-6.10;99.90;;;;;;5005617;28;19948;-69
2022/12/14 07:00:28;;;;;;;;;;;-5.60;99.90;;;;;;4991464;28;19933;-68
2022/12/14 07:02:53;;;;;;;;;;;-5.60;99.90;;;;;;5022800;28;19926;-69
2022/12/14 07:05:19;;;;;;;;;;;-5.50;99.90;;;;;;5022394;28;19925;-69
2022/12/14 07:07:45;;;;;;;;;;;-5.60;99.90;;;;;;5022618;28;19929;-68
2022/12/14 07:10:11;;;;;;;;;;;-5.70;99.90;;;;;;5022325;28;19926;-68
2022/12/14 07:12:37;;;;;;;;;;;-5.80;99.90;;;;;;5021894;28;19929;-68
2022/12/14 07:15:03;;;;;;;;;;;-5.80;99.90;;;;;;5022324;28;20402;-69
2022/12/14 07:17:28;;;;;;;;;;;-5.80;99.90;;;;;;5022640;28;19926;-68
2022/12/14 07:19:54;;;;;;;;;;;-5.70;99.90;;;;;;5006190;28;20228;-67
2022/12/14 07:22:20;;;;;;;;;;;-5.70;99.90;;;;;;5021676;27;19928;-69
2022/12/14 07:24:45;;;;;;;;;;;-5.70;99.90;;;;;;4989610;28;19926;-68
2022/12/14 07:27:11;;;;;;;;;;;-5.60;99.90;;;;;;4972417;28;19971;-68
2022/12/14 07:29:37;;;;;;;;;;;-5.60;99.90;;;;;;5005777;28;20286;-71
2022/12/14 07:32:03;;;;;;;;;;;-5.70;99.90;;;;;;4990236;28;20070;-70
2022/12/14 07:34:28;;;;;;;;;;;-5.70;99.90;;;;;;4990508;28;20244;-69
2022/12/14 07:36:54;;;;;;;;;;;-5.70;99.90;;;;;;4989133;28;19937;-69
2022/12/14 07:39:20;;;;;;;;;;;-5.70;99.90;;;;;;4988999;28;19926;-66
2022/12/14 07:41:46;;;;;;;;;;;-5.80;99.90;;;;;;5005312;28;19926;-70
2022/12/14 07:44:12;;;;;;;;;;;-5.90;99.90;;;;;;5021461;28;19926;-71
2022/12/14 07:46:38;;;;;;;;;;;-5.90;99.90;;;;;;4990062;28;19930;-70
2022/12/14 07:49:03;;;;;;;;;;;-6.00;99.90;;;;;;4990211;28;19952;-71
2022/12/14 07:51:31;;;;;;;;;;;-5.90;99.90;;;;;;4989363;28;19932;-70
2022/12/14 07:53:57;;;;;;;;;;;-5.50;99.90;;;;;;4990566;28;19932;-71
2022/12/14 07:56:24;;;;;;;;;;;-5.90;99.90;;;;;;4989220;28;19926;-70
2022/12/14 07:58:50;;;;;;;;;;;-5.90;99.90;;;;;;5021952;28;20264;-71
2022/12/14 08:01:17;;;;;;;;;;;-5.90;99.90;;;;;;5021470;28;19951;-72
2022/12/14 08:03:44;;;;;;;;;;;-5.80;99.90;;;;;;5005366;28;19925;-71
2022/12/14 08:06:10;;;;;;;;;;;-5.80;99.90;;;;;;4988618;28;20341;-71
2022/12/14 08:08:36;;;;;;;;;;;-5.80;99.90;;;;;;4989805;28;19926;-70
2022/12/14 08:11:02;;;;;;;;;;;-5.70;99.90;;;;;;5021022;28;20204;-73
2022/12/14 08:13:27;;;;;;;;;;;-5.70;99.90;;;;;;5021740;28;19922;-71
2022/12/14 08:15:53;;;;;;;;;;;-5.70;99.90;;;;;;5021956;28;19925;-70
2022/12/14 08:18:19;;;;;;;;;;;-5.70;99.90;;;;;;5004864;28;20001;-71
2022/12/14 08:20:50;;;;;;;;;;;-5.70;99.90;;;;;;5023093;28;19926;-72
2022/12/14 08:23:16;;;;;;;;;;;-5.70;99.90;;;;;;5028562;28;19921;-72
2022/12/14 08:25:42;;;;;;;;;;;-5.70;99.90;;;;;;5043716;28;19925;-70
2022/12/14 08:28:08;;;;;;;;;;;-5.60;99.90;;;;;;5011291;28;19932;-69
2022/12/14 08:30:40;;;;;;;;;;;-5.60;99.90;;;;;;5010560;28;20012;-69
2022/12/14 08:33:05;;;;;;;;;;;-5.50;99.90;;;;;;5028976;28;19932;-70
2022/12/14 08:35:32;;;;;;;;;;;-5.50;99.90;;;;;;5044236;28;20286;-73
2022/12/14 08:37:57;;;;;;;;;;;-5.50;99.90;;;;;;5044607;28;20012;-75
2022/12/14 08:40:23;;;;;;;;;;;-5.50;99.90;;;;;;5027503;28;19975;-72
2022/12/14 08:42:49;;;;;;;;;;;-5.40;99.90;;;;;;5027534;28;19929;-73
2022/12/14 08:45:15;;;;;;;;;;;-5.40;99.90;;;;;;5010574;28;20306;-72
2022/12/14 08:47:41;;;;;;;;;;;-5.30;99.90;;;;;;5044059;28;19925;-73
2022/12/14 08:50:07;;;;;;;;;;;-5.30;99.90;;;;;;5027874;28;19925;-73
2022/12/14 08:52:32;;;;;;;;;;;-5.20;99.90;;;;;;5044414;28;19928;-74
2022/12/14 08:54:58;;;;;;;;;;;-5.20;99.90;;;;;;5028160;28;19973;-72
2022/12/14 08:57:24;;;;;;;;;;;-5.20;99.90;;;;;;5043640;28;19998;-72
2022/12/14 08:59:49;;;;;;;;;;;-5.20;99.90;;;;;;5028993;28;20390;-72
2022/12/14 09:02:15;;;;;;;;;;;-5.10;99.90;;;;;;5029018;28;19926;-71
2022/12/14 09:04:41;;;;;;;;;;;-5.10;99.90;;;;;;5028097;28;19932;-73
2022/12/14 09:07:06;;;;;;;;;;;-5.10;99.90;;;;;;5027970;28;19978;-74
2022/12/14 09:09:34;;;;;;;;;;;-5.00;99.90;;;;;;5060903;28;19972;-74
2022/12/14 09:12:02;;;;;;;;;;;-5.00;99.90;;;;;;5044465;28;20028;-74
2022/12/14 09:14:28;;;;;;;;;;;-4.90;99.90;;;;;;5027827;28;19945;-74
2022/12/14 09:16:53;;;;;;;;;;;-4.80;99.90;;;;;;5027836;28;19972;-73
2022/12/14 09:19:19;;;;;;;;;;;-4.80;99.90;;;;;;5028367;28;19925;-72
2022/12/14 09:21:45;;;;;;;;;;;-4.70;99.90;;;;;;5026159;28;19983;-74
2022/12/14 09:24:10;;;;;;;;;;;-4.70;99.90;;;;;;5004941;28;19936;-72
2022/12/14 09:26:36;;;;;;;;;;;-4.60;99.90;;;;;;5025171;28;20074;-73
2022/12/14 09:29:02;;;;;;;;;;;-4.50;99.90;;;;;;5011474;28;19926;-74
2022/12/14 09:31:27;;;;;;;;;;;-4.10;99.90;;;;;;5004650;28;19977;-73
2022/12/14 09:33:53;;;;;;;;;;;-4.30;99.90;;;;;;4989681;28;19933;-73
2022/12/14 09:36:20;;;;;;;;;;;-3.80;99.90;;;;;;5007857;28;19932;-74
2022/12/14 09:38:48;;;;;;;;;;;-4.00;99.90;;;;;;4991504;28;20283;-74
2022/12/14 09:41:22;;;;;;;;;;;-4.10;99.90;;;;;;5024660;28;19926;-74
2022/12/14 09:44:06;;;;;;;;;;;-4.10;99.90;;;;;;5007984;28;19926;-74
2022/12/14 09:46:40;;;;;;;;;;;-4.00;99.90;;;;;;4991954;28;19926;-73
2022/12/14 09:49:16;;;;;;;;;;;-4.00;99.90;;;;;;5024265;28;19933;-72
2022/12/14 09:51:42;;;;;;;;;;;-3.90;99.90;;;;;;5007566;28;19947;-74
2022/12/14 09:54:11;;;;;;;;;;;-3.90;99.90;;;;;;5024422;28;20021;-74
2022/12/14 09:56:37;;;;;;;;;;;-3.60;99.90;;;;;;5007750;28;19933;-75
2022/12/14 09:59:03;;;;;;;;;;;-3.80;99.90;;;;;;4992614;28;19929;-75
2022/12/14 10:01:39;;;;;;;;;;;-3.70;99.90;;;;;;5023609;28;19926;-72
2022/12/14 10:04:11;;;;;;;;;;;-3.70;99.90;;;;;;5007597;28;19925;-74
2022/12/14 10:06:37;;;;;;;;;;;-3.60;99.90;;;;;;5023446;28;20372;-74
2022/12/14 10:09:08;;;;;;;;;;;-3.50;99.90;;;;;;5024316;28;20020;-74
2022/12/14 10:11:40;;;;;;;;;;;-3.20;99.90;;;;;;4990642;28;19972;-73
2022/12/14 10:14:10;;;;;;;;;;;-3.40;99.90;;;;;;5007615;28;19932;-74
2022/12/14 10:16:39;;;;;;;;;;;-3.40;99.90;;;;;;5023537;28;20377;-72
2022/12/14 10:19:11;;;;;;;;;;;-3.30;99.90;;;;;;5007180;28;19953;-71
2022/12/14 10:21:55;;;;;;;;;;;-3.20;99.90;;;;;;5022622;27;20364;-72
2022/12/14 10:24:23;;;;;;;;;;;-3.20;99.90;;;;;;5023294;28;19929;-71
2022/12/14 10:26:53;;;;;;;;;;;-3.10;99.90;;;;;;5005849;28;19930;-74
2022/12/14 10:29:18;;;;;;;;;;;-3.10;99.90;;;;;;4992374;28;19952;-73
2022/12/14 10:31:47;;;;;;;;;;;-3.00;99.90;;;;;;4991770;28;20379;-74
2022/12/14 10:34:17;;;;;;;;;;;-2.90;99.90;;;;;;4992090;28;19929;-74
2022/12/14 10:36:58;;;;;;;;;;;-2.80;99.90;;;;;;4990830;28;19933;-74
2022/12/14 10:39:33;;;;;;;;;;;-2.70;99.90;;;;;;5023805;28;19930;-73
2022/12/14 10:42:03;;;;;;;;;;;-2.60;99.90;;;;;;4992556;28;19932;-72
2022/12/14 10:44:34;;;;;;;;;;;-2.50;99.90;;;;;;4997371;28;19949;-69
2022/12/14 10:47:09;;;;;;;;;;;-2.50;99.90;;;;;;5018485;28;19932;-72
2022/12/14 10:49:38;;;;;;;;;;;-2.40;99.90;;;;;;5025131;28;20011;-72
2022/12/14 10:52:13;;;;;;;;;;;-2.30;99.90;;;;;;5023573;28;19979;-72
2022/12/14 10:54:45;;;;;;;;;;;-2.30;99.90;;;;;;4990296;28;20386;-74
2022/12/14 10:57:36;;;;;;;;;;;-2.20;99.90;;;;;;4990760;28;20024;-74
2022/12/14 11:00:11;;;;;;;;;;;-2.10;99.90;;;;;;5021717;28;19926;-72
2022/12/14 11:02:41;;;;;;;;;;;-2.10;99.90;;;;;;4991434;28;19934;-74
2022/12/14 11:05:16;;;;;;;;;;;-2.00;99.90;;;;;;5023365;28;20066;-72
2022/12/14 11:07:44;;;;;;;;;;;-1.90;99.90;;;;;;4990844;28;20458;-73
2022/12/14 11:10:15;;;;;;;;;;;-1.80;99.90;;;;;;5022678;28;19986;-70
2022/12/14 11:12:51;;;;;;;;;;;-1.90;99.90;;;;;;4991199;28;19926;-75
2022/12/14 11:15:26;;;;;;;;;;;-1.80;99.90;;;;;;4990382;28;20216;-73
2022/12/14 11:17:59;;;;;;;;;;;-1.70;99.90;;;;;;5023164;28;19972;-74
2022/12/14 11:20:25;;;;;;;;;;;-1.20;99.90;;;;;;5007036;28;20104;-73
2022/12/14 11:22:55;;;;;;;;;;;-1.60;99.90;;;;;;5033366;27;19933;-73
2022/12/14 11:25:28;;;;;;;;;;;-1.50;99.90;;;;;;5023125;28;20252;-73
2022/12/14 11:27:54;;;;;;;;;;;-1.50;99.90;;;;;;4989502;28;20019;-74
2022/12/14 11:30:20;;;;;;;;;;;-1.40;99.90;;;;;;5022897;28;19926;-75
2022/12/14 11:32:47;;;;;;;;;;;-1.40;99.90;;;;;;5007050;28;20333;-74
2022/12/14 11:35:16;;;;;;;;;;;-1.40;99.90;;;;;;5006839;28;19956;-74
2022/12/14 11:37:42;;;;;;;;;;;-1.30;99.90;;;;;;5023119;28;19932;-75
2022/12/14 11:40:17;;;;;;;;;;;-1.30;99.90;;;;;;4973662;28;19926;-74
2022/12/14 11:42:46;;;;;;;;;;;-1.30;99.90;;;;;;5006279;28;20021;-74
2022/12/14 11:45:26;;;;;;;;;;;-1.30;99.90;;;;;;5006480;28;20317;-73
2022/12/14 11:48:11;;;;;;;;;;;-1.20;99.90;;;;;;4990849;28;20418;-74
2022/12/14 11:50:36;;;;;;;;;;;-1.20;99.90;;;;;;5022609;28;19975;-73
2022/12/14 11:53:03;;;;;;;;;;;-1.20;99.90;;;;;;5005981;28;19926;-72
2022/12/14 11:55:29;;;;;;;;;;;-1.10;99.90;;;;;;4973244;28;19968;-71
2022/12/14 11:57:57;;;;;;;;;;;-1.10;99.90;;;;;;4989908;28;19980;-73
2022/12/14 12:00:45;;;;;;;;;;;-1.10;99.90;;;;;;4990265;28;20028;-73
2022/12/14 12:03:38;;;;;;;;;;;-1.10;99.90;;;;;;5028200;28;19926;-71
2022/12/14 12:06:05;;;;;;;;;;;-1.00;99.90;;;;;;5027239;28;20051;-72
2022/12/14 12:08:33;;;;;;;;;;;-1.00;99.90;;;;;;5022427;28;19933;-72
2022/12/14 12:11:01;;;;;;;;;;;-0.90;99.90;;;;;;4990256;28;20062;-71
2022/12/14 12:13:40;;;;;;;;;;;-0.80;99.90;;;;;;4989703;28;19926;-73
2022/12/14 12:16:08;;;;;;;;;;;-0.80;99.90;;;;;;5021792;28;20131;-73
2022/12/14 12:18:36;;;;;;;;;;;-0.80;99.90;;;;;;5022709;28;19930;-71
2022/12/14 12:21:13;;;;;;;;;;;-0.80;99.90;;;;;;4989648;28;19926;-72
2022/12/14 12:23:48;;;;;;;;;;;-0.70;99.90;;;;;;4990215;28;19963;-71
2022/12/14 12:26:19;;;;;;;;;;;-0.70;99.90;;;;;;5021551;28;19925;-71
2022/12/14 12:28:54;;;;;;;;;;;-0.70;99.90;;;;;;4989836;28;20024;-71
2022/12/14 12:31:22;;;;;;;;;;;-0.70;99.90;;;;;;4990334;28;19926;-71
2022/12/14 12:33:56;;;;;;;;;;;-0.70;99.90;;;;;;5004971;28;20278;-72
2022/12/14 12:36:22;;;;;;;;;;;-0.70;99.90;;;;;;5022008;28;19952;-72
2022/12/14 12:38:54;;;;;;;;;;;-0.30;99.90;;;;;;4989733;28;19928;-72
2022/12/14 12:41:29;;;;;;;;;;;-0.70;99.90;;;;;;4988941;28;19937;-72
2022/12/14 12:44:10;;;;;;;;;;;-0.70;99.90;;;;;;5004949;28;20017;-72
2022/12/14 12:46:44;;;;;;;;;;;-0.70;99.90;;;;;;4972507;28;20482;-72
2022/12/14 12:49:11;;;;;;;;;;;-0.70;99.90;;;;;;5004889;28;19932;-72
2022/12/14 12:51:44;;;;;;;;;;;-0.70;99.90;;;;;;5021621;28;19974;-72
2022/12/14 12:54:13;;;;;;;;;;;-0.50;99.90;;;;;;4988260;28;20379;-73
2022/12/14 12:56:42;;;;;;;;;;;-0.70;99.90;;;;;;4988608;28;19979;-72
2022/12/14 12:59:14;;;;;;;;;;;-0.60;99.90;;;;;;5021414;28;19937;-73
2022/12/14 13:01:42;;;;;;;;;;;-0.60;99.90;;;;;;4989887;28;20334;-72
2022/12/14 13:04:21;;;;;;;;;;;-0.60;99.90;;;;;;5004358;28;19933;-72
2022/12/14 13:06:50;;;;;;;;;;;-0.60;99.90;;;;;;5021101;28;20263;-72
2022/12/14 13:09:18;;;;;;;;;;;-0.60;99.90;;;;;;4989681;28;20039;-73
2022/12/14 13:11:44;;;;;;;;;;;-0.60;99.90;;;;;;5024910;28;19930;-73
2022/12/14 13:14:29;;;;;;;;;;;-0.60;99.90;;;;;;5024342;28;19949;-72
2022/12/14 13:16:57;;;;;;;;;;;-0.60;99.90;;;;;;5024299;28;20375;-71
2022/12/14 13:19:35;;;;;;;;;;;-0.60;99.90;;;;;;5024555;28;20291;-68
2022/12/14 13:22:01;;;;;;;;;;;-0.70;99.90;;;;;;5006580;28;19969;-68
2022/12/14 13:24:27;;;;;;;;;;;-0.60;99.90;;;;;;5032276;28;19925;-67
2022/12/14 13:27:11;;;;;;;;;;;-0.50;99.90;;;;;;5030369;28;20290;-69
2022/12/14 13:29:58;;;;;;;;;;;-0.50;99.90;;;;;;5030611;28;19965;-67
2022/12/14 13:32:27;;;;;;;;;;;-0.50;99.90;;;;;;5031530;28;20570;-68
2022/12/14 13:34:52;;;;;;;;;;;-0.50;99.90;;;;;;5030587;28;20290;-69
2022/12/14 13:37:30;;;;;;;;;;;-0.50;99.90;;;;;;5031686;28;19925;-69
2022/12/14 13:40:15;;;;;;;;;;;-0.60;99.90;;;;;;5047423;28;20320;-71
2022/12/14 13:42:50;;;;;;;;;;;-0.60;99.90;;;;;;5031764;28;20297;-69
2022/12/14 13:45:18;;;;;;;;;;;-0.60;99.90;;;;;;5046652;28;19929;-68
2022/12/14 13:47:47;;;;;;;;;;;-0.70;99.90;;;;;;5047022;28;19926;-66
2022/12/14 13:50:39;;;;;;;;;;;-0.70;99.90;;;;;;5030900;28;19925;-66
2022/12/14 13:53:11;;;;;;;;;;;-0.70;99.90;;;;;;5016638;28;20023;-67
2022/12/14 13:55:37;;;;;;;;;;;-0.70;99.90;;;;;;5030227;28;19940;-70
2022/12/14 13:58:12;;;;;;;;;;;-0.70;99.90;;;;;;5046352;28;20020;-71
2022/12/14 14:00:44;;;;;;;;;;;-0.70;99.90;;;;;;5030660;28;19983;-71
2022/12/14 14:03:28;;;;;;;;;;;-0.80;99.90;;;;;;5046737;28;19925;-71
2022/12/14 14:06:06;;;;;;;;;;;-0.80;99.90;;;;;;5047094;28;19936;-70
2022/12/14 14:08:32;;;;;;;;;;;-0.90;99.90;;;;;;5047003;28;19986;-71
2022/12/14 14:11:21;;;;;;;;;;;-0.70;99.90;;;;;;5046785;28;19973;-70
2022/12/14 14:13:47;;;;;;;;;;;-1.00;99.90;;;;;;5047064;28;19926;-71
2022/12/14 14:16:18;;;;;;;;;;;-1.10;99.90;;;;;;5046388;28;19933;-71
2022/12/14 14:18:52;;;;;;;;;;;-1.20;99.90;;;;;;5046847;28;20391;-72
2022/12/14 14:21:20;;;;;;;;;;;-1.20;99.90;;;;;;5046319;28;19925;-72
2022/12/14 14:24:05;;;;;;;;;;;-1.20;99.90;;;;;;5046865;28;20381;-71
2022/12/14 14:26:34;;;;;;;;;;;-1.20;99.90;;;;;;5030149;28;19936;-71
2022/12/14 14:29:12;;;;;;;;;;;-1.30;99.90;;;;;;4997331;28;19925;-71
2022/12/14 14:31:47;;;;;;;;;;;-1.30;99.90;;;;;;5046705;28;20056;-70
2022/12/14 14:34:17;;;;;;;;;;;-1.30;99.90;;;;;;5029826;28;20078;-70
2022/12/14 14:36:44;;;;;;;;;;;-1.40;99.90;;;;;;5046945;28;20020;-71
2022/12/14 14:39:28;;;;;;;;;;;-1.40;99.90;;;;;;5046701;28;20278;-71
2022/12/14 14:41:54;;;;;;;;;;;-1.40;99.90;;;;;;5014081;28;19970;-72